Time;durP1;ratioP1;P1;durP2;ratioP2;P2;SDS_P1;SDS_P2;PMS_P1;PMS_P2;Temp;Humidity;BMP_temperature;BMP_pressure;BME280_temperature;BME280_humidity;BME280_pressure;Samples;Min_cycle;Max_cycle;Signal;HPM_P1;HPM_P2
2022/08/26 00:01:35;;;;;;;;;;;;;;;20.74;77.66;101447.16;5023233;28;19913;-58
2022/08/26 00:04:00;;;;;;;;;;;;;;;20.73;77.67;101453.59;5022358;28;19924;-59
2022/08/26 00:06:26;;;;;;;;;;;;;;;20.72;76.99;101450.06;5021913;28;19928;-58
2022/08/26 00:08:51;;;;;;;;;;;;;;;20.72;77.40;101455.47;5024509;28;19920;-58
2022/08/26 00:11:16;;;;;;;;;;;;;;;20.68;77.38;101456.16;5025388;28;20000;-58
2022/08/26 00:13:42;;;;;;;;;;;;;;;20.64;77.86;101458.47;5026435;28;19912;-58
2022/08/26 00:16:08;;;;;;;;;;;;;;;20.60;77.94;101465.34;5024764;28;19920;-58
2022/08/26 00:18:33;;;;;;;;;;;;;;;20.59;77.81;101466.41;5025491;28;20490;-59
2022/08/26 00:20:59;;;;;;;;;;;;;;;20.57;77.96;101460.41;5023944;28;19912;-58
2022/08/26 00:23:25;;;;;;;;;;;;;;;20.53;78.10;101456.50;5022100;28;19964;-58
2022/08/26 00:25:50;;;;;;;;;;;;;;;20.52;77.63;101467.50;5022880;28;19913;-58
2022/08/26 00:28:15;;;;;;;;;;;;;;;20.52;77.69;101462.09;5022772;28;20402;-58
2022/08/26 00:30:41;;;;;;;;;;;;;;;20.52;77.41;101462.09;5025133;28;19913;-58
2022/08/26 00:33:06;;;;;;;;;;;;;;;20.52;77.68;101464.78;5022473;28;20012;-58
2022/08/26 00:35:32;;;;;;;;;;;;;;;20.53;77.68;101475.41;5022885;28;19923;-58
2022/08/26 00:37:58;;;;;;;;;;;;;;;20.54;77.83;101468.13;5018407;28;19967;-58
2022/08/26 00:40:26;;;;;;;;;;;;;;;20.54;77.59;101466.25;5019863;28;19964;-58
2022/08/26 00:42:51;;;;;;;;;;;;;;;20.56;77.75;101461.47;5022257;28;19955;-58
2022/08/26 00:45:17;;;;;;;;;;;;;;;20.59;77.37;101458.31;5021711;28;20349;-57
2022/08/26 00:47:45;;;;;;;;;;;;;;;20.61;77.37;101455.38;5021938;28;19920;-58
2022/08/26 00:50:12;;;;;;;;;;;;;;;20.63;77.30;101462.22;5021733;28;20415;-58
2022/08/26 00:52:38;;;;;;;;;;;;;;;20.64;77.27;101458.47;5024399;28;19919;-58
2022/08/26 00:55:07;;;;;;;;;;;;;;;20.64;77.35;101460.34;5023171;28;19913;-59
2022/08/26 00:57:34;;;;;;;;;;;;;;;20.64;76.96;101465.75;5023104;28;19913;-58
2022/08/26 01:00:01;;;;;;;;;;;;;;;20.64;76.67;101476.53;5022481;28;19913;-58
2022/08/26 01:02:26;;;;;;;;;;;;;;;20.65;77.37;101473.63;5020367;28;19924;-58
2022/08/26 01:04:53;;;;;;;;;;;;;;;20.64;77.04;101471.13;5023140;28;20066;-58
2022/08/26 01:07:20;;;;;;;;;;;;;;;20.65;77.33;101462.81;5020981;28;19956;-58
2022/08/26 01:09:45;;;;;;;;;;;;;;;20.68;77.19;101467.78;5021376;28;19959;-57
2022/08/26 01:12:10;;;;;;;;;;;;;;;20.72;76.99;101474.38;5018908;28;19913;-58
2022/08/26 01:14:36;;;;;;;;;;;;;;;20.73;77.11;101467.91;5024990;28;19975;-58
2022/08/26 01:17:01;;;;;;;;;;;;;;;20.70;77.07;101459.44;5019530;28;19913;-59
2022/08/26 01:19:29;;;;;;;;;;;;;;;20.74;77.20;101460.66;5023626;28;19917;-59
2022/08/26 01:22:01;;;;;;;;;;;;;;;20.73;76.88;101464.41;5019539;28;19917;-58
2022/08/26 01:24:27;;;;;;;;;;;;;;;20.73;77.22;101476.03;5023842;28;20377;-58
2022/08/26 01:26:58;;;;;;;;;;;;;;;20.70;77.01;101468.38;5022438;28;20001;-58
2022/08/26 01:29:23;;;;;;;;;;;;;;;20.69;76.65;101461.31;5023570;28;19927;-58
2022/08/26 01:31:51;;;;;;;;;;;;;;;20.72;77.09;101468.97;5021991;28;19995;-58
2022/08/26 01:34:24;;;;;;;;;;;;;;;20.73;77.22;101464.41;5020071;28;20336;-58
2022/08/26 01:36:51;;;;;;;;;;;;;;;20.74;77.26;101457.94;5018428;28;19920;-57
2022/08/26 01:39:17;;;;;;;;;;;;;;;20.75;77.16;101458.78;5023533;28;19932;-58
2022/08/26 01:41:42;;;;;;;;;;;;;;;20.77;76.86;101460.19;5022180;28;20300;-58
2022/08/26 01:44:09;;;;;;;;;;;;;;;20.78;77.03;101461.84;5022571;28;19947;-58
2022/08/26 01:46:34;;;;;;;;;;;;;;;20.80;76.70;101467.03;5025005;28;20316;-58
2022/08/26 01:49:01;;;;;;;;;;;;;;;20.79;76.78;101462.69;5021308;28;20552;-57
2022/08/26 01:51:27;;;;;;;;;;;;;;;20.77;77.08;101462.91;5019533;28;19917;-58
2022/08/26 01:53:53;;;;;;;;;;;;;;;20.77;77.12;101464.78;5021217;28;19913;-57
2022/08/26 01:56:19;;;;;;;;;;;;;;;20.77;76.66;101462.91;5022884;28;20012;-58
2022/08/26 01:58:53;;;;;;;;;;;;;;;20.77;76.96;101464.78;5018071;28;19913;-58
2022/08/26 02:01:18;;;;;;;;;;;;;;;20.76;76.89;101463.13;5017623;28;20385;-58
2022/08/26 02:03:52;;;;;;;;;;;;;;;20.76;76.61;101463.13;5017428;28;19927;-58
2022/08/26 02:06:18;;;;;;;;;;;;;;;20.78;77.06;101471.81;5024705;28;19932;-57
2022/08/26 02:08:45;;;;;;;;;;;;;;;20.80;76.33;101461.63;5022367;28;19913;-58
2022/08/26 02:11:11;;;;;;;;;;;;;;;20.80;76.63;101456.22;5022955;28;19920;-58
2022/08/26 02:13:38;;;;;;;;;;;;;;;20.82;76.44;101459.56;5017528;28;20297;-57
2022/08/26 02:16:04;;;;;;;;;;;;;;;20.82;76.23;101468.47;5018057;28;19967;-58
2022/08/26 02:18:32;;;;;;;;;;;;;;;20.81;76.27;101463.28;5023534;28;19944;-59
2022/08/26 02:20:57;;;;;;;;;;;;;;;20.82;76.44;101468.47;5019161;28;19967;-59
2022/08/26 02:23:22;;;;;;;;;;;;;;;20.77;76.80;101459.38;5020307;28;20507;-58
2022/08/26 02:26:00;;;;;;;;;;;;;;;20.72;76.65;101466.28;5023152;28;19920;-58
2022/08/26 02:28:29;;;;;;;;;;;;;;;20.68;76.58;101467.78;5018701;28;20012;-59
2022/08/26 02:30:55;;;;;;;;;;;;;;;20.66;76.44;101472.56;5021491;28;19913;-58
2022/08/26 02:33:20;;;;;;;;;;;;;;;20.61;76.69;101477.81;5023624;28;19921;-57
2022/08/26 02:35:45;;;;;;;;;;;;;;;20.58;76.81;101480.94;5023692;28;19924;-58
2022/08/26 02:38:10;;;;;;;;;;;;;;;20.54;77.20;101487.84;5019994;28;19920;-57
2022/08/26 02:40:39;;;;;;;;;;;;;;;20.53;76.78;101488.88;5022113;28;19957;-58
2022/08/26 02:43:04;;;;;;;;;;;;;;;20.48;76.77;101488.69;5019132;28;19917;-58
2022/08/26 02:45:30;;;;;;;;;;;;;;;20.45;76.83;101491.84;5020818;28;20324;-57
2022/08/26 02:47:56;;;;;;;;;;;;;;;20.41;77.12;101494.16;5022960;28;20288;-57
2022/08/26 02:50:22;;;;;;;;;;;;;;;20.39;77.02;101490.81;5022392;28;20324;-57
2022/08/26 02:52:47;;;;;;;;;;;;;;;20.37;77.11;101489.38;5023441;28;20015;-58
2022/08/26 02:55:13;;;;;;;;;;;;;;;20.36;76.95;101480.47;5019068;28;19956;-58
2022/08/26 02:57:38;;;;;;;;;;;;;;;20.35;76.99;101486.09;5021611;28;20392;-58
2022/08/26 03:00:05;;;;;;;;;;;;;;;20.31;77.28;101476.78;5022339;28;19975;-57
2022/08/26 03:02:30;;;;;;;;;;;;;;;20.26;77.59;101480.16;5020571;28;19920;-56
2022/08/26 03:04:55;;;;;;;;;;;;;;;20.22;77.59;101484.28;5020214;28;19917;-59
2022/08/26 03:07:20;;;;;;;;;;;;;;;20.19;77.53;101489.31;5021278;28;19927;-58
2022/08/26 03:09:46;;;;;;;;;;;;;;;20.16;77.63;101487.88;5021886;28;19920;-57
2022/08/26 03:12:11;;;;;;;;;;;;;;;20.15;77.71;101480.00;5019862;28;20300;-59
2022/08/26 03:14:36;;;;;;;;;;;;;;;20.13;77.49;101484.78;5018501;28;19917;-58
2022/08/26 03:17:01;;;;;;;;;;;;;;;20.10;78.06;101484.19;5020361;28;19917;-58
2022/08/26 03:19:27;;;;;;;;;;;;;;;20.09;77.44;101482.53;5021129;28;20283;-58
2022/08/26 03:21:52;;;;;;;;;;;;;;;20.09;77.62;101487.09;5020898;28;20371;-58
2022/08/26 03:24:18;;;;;;;;;;;;;;;20.07;78.24;101483.78;5018023;28;19943;-58
2022/08/26 03:26:44;;;;;;;;;;;;;;;20.06;78.30;101484.84;5021998;28;19985;-58
2022/08/26 03:31:53;;;;;;;;;;;;;;;20.07;78.49;101486.50;5020462;28;19920;-58
2022/08/26 03:34:18;;;;;;;;;;;;;;;20.05;78.23;101481.31;5020658;28;20305;-57
2022/08/26 03:36:44;;;;;;;;;;;;;;;20.03;78.46;101490.66;5020490;28;19921;-58
2022/08/26 03:39:09;;;;;;;;;;;;;;;20.01;78.35;101490.88;5019739;28;20616;-57
2022/08/26 03:41:35;;;;;;;;;;;;;;;20.00;78.61;101488.41;5019933;28;20057;-57
2022/08/26 03:44:01;;;;;;;;;;;;;;;19.98;78.66;101494.03;5021943;28;19928;-58
2022/08/26 03:46:26;;;;;;;;;;;;;;;19.96;79.21;101498.81;5025092;28;19925;-58
2022/08/26 03:48:51;;;;;;;;;;;;;;;19.95;79.60;101493.59;5028342;28;19920;-57
2022/08/26 03:51:17;;;;;;;;;;;;;;;19.93;79.15;101493.81;5022118;28;20408;-59
2022/08/26 03:53:42;;;;;;;;;;;;;;;19.92;78.68;101492.16;5026244;28;19913;-58
2022/08/26 03:56:08;;;;;;;;;;;;;;;19.94;78.78;101489.25;5024684;28;19924;-58
2022/08/26 03:58:33;;;;;;;;;;;;;;;19.95;78.79;101483.66;5022191;28;19913;-58
2022/08/26 04:00:59;;;;;;;;;;;;;;;19.94;79.14;101487.38;5024817;28;19959;-58
2022/08/26 04:06:08;;;;;;;;;;;;;;;19.95;79.26;101488.22;5023643;28;20284;-58
2022/08/26 04:08:34;;;;;;;;;;;;;;;19.94;79.19;101494.63;5024537;28;19917;-59
2022/08/26 04:11:00;;;;;;;;;;;;;;;19.93;78.93;101491.13;5022298;28;19970;-57
2022/08/26 04:13:25;;;;;;;;;;;;;;;19.93;78.86;101487.59;5023918;28;19917;-58
2022/08/26 04:15:50;;;;;;;;;;;;;;;19.89;78.86;101494.47;5024086;28;19919;-58
2022/08/26 04:18:16;;;;;;;;;;;;;;;19.88;79.26;101488.25;5021979;28;19923;-58
2022/08/26 04:20:41;;;;;;;;;;;;;;;19.88;79.00;101485.56;5024419;28;20462;-58
2022/08/26 04:23:06;;;;;;;;;;;;;;;19.84;79.26;101481.66;5021951;28;19947;-58
2022/08/26 04:25:31;;;;;;;;;;;;;;;19.82;79.35;101481.03;5025436;28;19913;-58
2022/08/26 04:27:56;;;;;;;;;;;;;;;19.82;79.56;101481.03;5023174;28;19913;-58
2022/08/26 04:30:22;;;;;;;;;;;;;;;19.84;79.43;101480.81;5031832;28;19919;-58
2022/08/26 04:32:47;;;;;;;;;;;;;;;19.85;79.24;101487.84;5029250;28;19913;-58
2022/08/26 04:35:13;;;;;;;;;;;;;;;19.84;79.01;101489.72;5020346;28;20265;-59
2022/08/26 04:37:38;;;;;;;;;;;;;;;19.82;79.20;101491.00;5020383;28;20430;-59
2022/08/26 04:40:04;;;;;;;;;;;;;;;19.80;79.42;101491.22;5030290;28;19931;-59
2022/08/26 04:42:32;;;;;;;;;;;;;;;19.79;79.30;101489.56;5026070;28;20406;-58
2022/08/26 04:44:57;;;;;;;;;;;;;;;19.77;79.87;101489.78;5024180;28;20008;-58
2022/08/26 04:47:23;;;;;;;;;;;;;;;19.77;80.08;101492.47;5022695;28;20001;-58
2022/08/26 04:49:48;;;;;;;;;;;;;;;19.77;80.42;101492.47;5025286;28;20404;-59
2022/08/26 04:52:14;;;;;;;;;;;;;;;19.78;80.06;101496.00;5025334;28;19971;-58
2022/08/26 04:54:39;;;;;;;;;;;;;;;19.78;80.19;101496.00;5030739;28;19952;-58
2022/08/26 04:57:04;;;;;;;;;;;;;;;19.76;80.29;101506.16;5034798;28;20369;-58
2022/08/26 04:59:29;;;;;;;;;;;;;;;19.77;80.13;101510.50;5032034;28;20372;-57
2022/08/26 05:01:58;;;;;;;;;;;;;;;19.75;80.10;101504.50;5024023;28;20028;-58
2022/08/26 05:04:23;;;;;;;;;;;;;;;19.77;80.29;101513.19;5034901;28;20434;-58
2022/08/26 05:06:48;;;;;;;;;;;;;;;19.78;80.48;101509.47;5026523;28;19913;-57
2022/08/26 05:09:14;;;;;;;;;;;;;;;19.79;80.13;101511.13;5033161;28;19917;-57
2022/08/26 05:11:39;;;;;;;;;;;;;;;19.78;80.11;101507.59;5030849;28;19921;-59
2022/08/26 05:14:05;;;;;;;;;;;;;;;19.78;80.45;101509.47;5047923;28;19909;-58
2022/08/26 05:16:30;;;;;;;;;;;;;;;19.78;80.49;101504.06;5037614;28;20586;-58
2022/08/26 05:18:55;;;;;;;;;;;;;;;19.79;80.41;101501.16;5034222;28;19913;-58
2022/08/26 05:21:22;;;;;;;;;;;;;;;19.81;80.30;101498.25;5030182;28;20346;-59
2022/08/26 05:23:49;;;;;;;;;;;;;;;19.84;80.75;101505.06;5044139;28;19913;-59
2022/08/26 05:26:14;;;;;;;;;;;;;;;19.84;80.73;101505.91;5036881;28;20499;-59
2022/08/26 05:28:39;;;;;;;;;;;;;;;19.83;80.81;101517.72;5037476;28;20413;-59
2022/08/26 05:31:15;;;;;;;;;;;;;;;19.83;80.56;101515.03;5046870;28;19910;-58
2022/08/26 05:33:40;;;;;;;;;;;;;;;19.84;80.40;101505.91;5028385;28;20015;-58
2022/08/26 05:36:08;;;;;;;;;;;;;;;19.85;80.26;101510.25;5033429;28;20047;-58
2022/08/26 05:38:34;;;;;;;;;;;;;;;19.85;80.26;101509.44;5040708;28;19909;-58
2022/08/26 05:40:59;;;;;;;;;;;;;;;19.86;80.75;101511.91;5048707;28;19916;-58
2022/08/26 05:43:24;;;;;;;;;;;;;;;19.88;80.59;101511.69;5041586;28;19916;-58
2022/08/26 05:45:49;;;;;;;;;;;;;;;19.89;80.60;101507.94;5021332;28;20008;-58
2022/08/26 05:48:16;;;;;;;;;;;;;;;19.91;80.16;101511.25;5031488;28;19919;-58
2022/08/26 05:50:49;;;;;;;;;;;;;;;19.90;80.59;101517.69;5040252;28;20308;-58
2022/08/26 05:53:15;;;;;;;;;;;;;;;19.91;80.66;101519.34;5035056;28;19920;-58
2022/08/26 05:55:42;;;;;;;;;;;;;;;19.94;80.36;101530.50;5038793;28;20505;-58
2022/08/26 05:58:07;;;;;;;;;;;;;;;19.96;80.08;101533.84;5035598;28;19949;-58
2022/08/26 06:00:32;;;;;;;;;;;;;;;19.98;80.19;101541.72;5029448;28;19909;-58
2022/08/26 06:02:57;;;;;;;;;;;;;;;19.99;80.31;101533.41;5037242;28;20443;-58
2022/08/26 06:05:23;;;;;;;;;;;;;;;20.01;79.95;101535.91;5032049;28;19920;-58
2022/08/26 06:10:32;;;;;;;;;;;;;;;20.04;80.07;101555.16;5042339;28;19915;-58
2022/08/26 06:12:58;;;;;;;;;;;;;;;20.05;80.35;101554.13;5046364;28;19908;-58
2022/08/26 06:15:24;;;;;;;;;;;;;;;20.07;80.55;101545.81;5032265;28;19955;-59
2022/08/26 06:17:50;;;;;;;;;;;;;;;20.08;80.10;101548.28;5035789;28;19924;-58
2022/08/26 06:20:15;;;;;;;;;;;;;;;20.09;80.09;101554.50;5035120;28;19995;-58
2022/08/26 06:25:36;;;;;;;;;;;;;;;20.16;79.24;101570.66;5029719;28;19966;-59
2022/08/26 06:28:02;;;;;;;;;;;;;;;20.13;79.58;101569.22;5036050;28;19915;-59
2022/08/26 06:30:27;;;;;;;;;;;;;;;20.14;79.56;101561.94;5042500;28;19908;-58
2022/08/26 06:32:52;;;;;;;;;;;;;;;20.14;79.43;101564.66;5038655;28;20446;-58
2022/08/26 06:35:17;;;;;;;;;;;;;;;20.16;79.41;101559.88;5037841;28;19915;-58
2022/08/26 06:37:42;;;;;;;;;;;;;;;20.14;79.28;101567.34;5027764;28;19913;-58
2022/08/26 06:40:08;;;;;;;;;;;;;;;20.14;79.40;101573.56;5038941;28;20387;-58
2022/08/26 06:42:33;;;;;;;;;;;;;;;20.17;79.87;101575.00;5042851;28;20050;-59
2022/08/26 06:44:58;;;;;;;;;;;;;;;20.19;79.30;101573.75;5042476;28;19917;-59
2022/08/26 06:47:24;;;;;;;;;;;;;;;20.13;79.19;101576.47;5028583;28;19912;-59
2022/08/26 06:49:49;;;;;;;;;;;;;;;20.09;79.18;101582.31;5028027;28;19970;-58
2022/08/26 06:52:14;;;;;;;;;;;;;;;20.11;79.48;101580.22;5032444;28;19916;-58
2022/08/26 06:54:41;;;;;;;;;;;;;;;20.15;79.42;101588.69;5038770;28;19962;-59
2022/08/26 06:57:07;;;;;;;;;;;;;;;20.18;79.71;101577.47;5033290;28;19913;-58
2022/08/26 06:59:32;;;;;;;;;;;;;;;20.21;79.43;101581.63;5031150;28;19916;-58
2022/08/26 07:01:58;;;;;;;;;;;;;;;20.24;78.98;101589.28;5024315;28;19913;-58
2022/08/26 07:04:23;;;;;;;;;;;;;;;20.26;79.01;101592.59;5031909;28;19913;-58
2022/08/26 07:06:50;;;;;;;;;;;;;;;20.31;78.89;101582.00;5030819;28;19928;-58
2022/08/26 07:09:16;;;;;;;;;;;;;;;20.37;79.02;101584.63;5047086;28;19912;-58
2022/08/26 07:11:41;;;;;;;;;;;;;;;20.46;78.67;101582.53;5038951;28;19909;-59
2022/08/26 07:14:06;;;;;;;;;;;;;;;20.48;78.58;101576.91;5034459;28;19913;-59
2022/08/26 07:16:33;;;;;;;;;;;;;;;20.51;78.28;101585.41;5036159;28;19921;-58
2022/08/26 07:18:58;;;;;;;;;;;;;;;20.53;78.51;101586.03;5043450;28;19915;-59
2022/08/26 07:21:24;;;;;;;;;;;;;;;20.57;78.15;101583.72;5037141;28;19991;-58
2022/08/26 07:23:50;;;;;;;;;;;;;;;20.62;78.07;101582.00;5038890;28;20009;-58
2022/08/26 07:26:17;;;;;;;;;;;;;;;20.70;78.29;101589.84;5027776;28;20349;-58
2022/08/26 07:28:43;;;;;;;;;;;;;;;20.80;78.02;101583.94;5035341;28;19931;-58
2022/08/26 07:31:09;;;;;;;;;;;;;;;20.87;77.67;101597.41;5027161;28;19919;-59
2022/08/26 07:33:35;;;;;;;;;;;;;;;20.89;77.53;101593.44;5034846;28;19916;-59
2022/08/26 07:36:00;;;;;;;;;;;;;;;20.92;77.21;101597.56;5030769;28;20379;-59
2022/08/26 07:38:26;;;;;;;;;;;;;;;20.96;77.09;101590.69;5036102;28;20003;-59
2022/08/26 07:40:51;;;;;;;;;;;;;;;21.03;76.69;101599.53;5042284;28;19909;-59
2022/08/26 07:43:17;;;;;;;;;;;;;;;21.10;76.63;101594.91;5041865;28;20003;-60
2022/08/26 07:45:42;;;;;;;;;;;;;;;21.15;76.36;101596.97;5033311;28;19936;-59
2022/08/26 07:48:07;;;;;;;;;;;;;;;21.19;76.31;101609.78;5032162;28;19977;-59
2022/08/26 07:50:34;;;;;;;;;;;;;;;21.25;75.99;101603.53;5043632;28;19909;-59
2022/08/26 07:53:01;;;;;;;;;;;;;;;21.30;75.83;101606.38;5029342;28;20003;-59
2022/08/26 07:55:26;;;;;;;;;;;;;;;21.30;75.07;101606.38;5032759;28;20328;-59
2022/08/26 07:57:52;;;;;;;;;;;;;;;21.33;75.08;101614.03;5041639;28;19963;-59
2022/08/26 08:00:22;;;;;;;;;;;;;;;21.40;75.04;101608.59;5041903;28;19912;-59
2022/08/26 08:02:47;;;;;;;;;;;;;;;21.45;74.69;101610.63;5031713;28;19939;-59
2022/08/26 08:05:15;;;;;;;;;;;;;;;21.47;74.49;101612.06;5036066;28;20385;-59
2022/08/26 08:07:40;;;;;;;;;;;;;;;21.51;74.25;101609.72;5031937;28;19917;-59
2022/08/26 08:10:06;;;;;;;;;;;;;;;21.50;73.47;101613.47;5032608;28;19913;-59
2022/08/26 08:12:31;;;;;;;;;;;;;;;21.49;73.48;101609.94;5050013;28;20508;-59
2022/08/26 08:14:56;;;;;;;;;;;;;;;21.51;73.40;101615.94;5043685;28;19920;-59
2022/08/26 08:17:21;;;;;;;;;;;;;;;21.52;73.20;101614.91;5031486;28;19995;-59
2022/08/26 08:19:46;;;;;;;;;;;;;;;21.58;73.10;101618.59;5043148;28;19917;-59
2022/08/26 08:22:12;;;;;;;;;;;;;;;21.63;72.75;101610.63;5029169;28;20296;-59
2022/08/26 08:24:37;;;;;;;;;;;;;;;21.66;72.81;101604.75;5026435;28;19984;-60
2022/08/26 08:27:03;;;;;;;;;;;;;;;21.70;72.61;101611.41;5023901;28;20394;-59
2022/08/26 08:29:28;;;;;;;;;;;;;;;21.73;72.21;101615.53;5029610;28;20002;-59
2022/08/26 08:31:54;;;;;;;;;;;;;;;21.73;72.38;101619.06;5028266;28;19944;-60
2022/08/26 08:34:19;;;;;;;;;;;;;;;21.72;72.07;101621.97;5031320;28;19913;-59
2022/08/26 08:36:45;;;;;;;;;;;;;;;21.76;71.98;101623.19;5030421;28;19913;-60
2022/08/26 08:39:10;;;;;;;;;;;;;;;21.80;72.07;101629.78;5032376;28;20599;-60
2022/08/26 08:41:49;;;;;;;;;;;;;;;21.82;71.88;101633.91;5033922;28;19978;-59
2022/08/26 08:44:17;;;;;;;;;;;;;;;21.90;71.59;101632.78;5036085;28;19913;-59
2022/08/26 08:46:43;;;;;;;;;;;;;;;21.93;71.50;101626.91;5036475;28;19909;-59
2022/08/26 08:49:09;;;;;;;;;;;;;;;21.98;70.86;101615.44;5028819;28;20336;-59
2022/08/26 08:51:53;;;;;;;;;;;;;;;22.04;70.98;101614.56;5025580;28;19913;-59
2022/08/26 08:54:19;;;;;;;;;;;;;;;22.08;70.63;101621.16;5029575;28;20285;-59
2022/08/26 08:56:44;;;;;;;;;;;;;;;22.03;69.92;101624.50;5025282;28;19919;-59
2022/08/26 08:59:09;;;;;;;;;;;;;;;21.93;69.61;101629.63;5029836;28;20453;-59
2022/08/26 09:01:34;;;;;;;;;;;;;;;21.85;69.99;101629.94;5023103;28;20349;-59
2022/08/26 09:04:00;;;;;;;;;;;;;;;21.79;70.02;101625.44;5027317;28;19917;-59
2022/08/26 09:06:25;;;;;;;;;;;;;;;21.78;70.34;101623.78;5026026;28;19974;-59
2022/08/26 09:08:50;;;;;;;;;;;;;;;21.76;70.07;101624.00;5036196;28;19909;-59
2022/08/26 09:11:16;;;;;;;;;;;;;;;21.78;70.34;101626.47;5045893;28;19916;-59
2022/08/26 09:13:48;;;;;;;;;;;;;;;21.82;70.06;101625.81;5048019;28;20003;-59
2022/08/26 09:16:26;;;;;;;;;;;;;;;21.76;69.81;101634.81;5035326;28;19912;-59
2022/08/26 09:18:51;;;;;;;;;;;;;;;21.71;69.92;101631.97;5023726;28;19909;-59
2022/08/26 09:21:17;;;;;;;;;;;;;;;21.71;69.96;101642.78;5036583;28;19963;-59
2022/08/26 09:23:43;;;;;;;;;;;;;;;21.67;69.77;101641.56;5025805;28;19939;-59
2022/08/26 09:26:24;;;;;;;;;;;;;;;21.64;69.93;101637.44;5028572;28;20281;-59
2022/08/26 09:29:00;;;;;;;;;;;;;;;21.63;69.99;101643.88;5030954;28;19913;-59
2022/08/26 09:31:30;;;;;;;;;;;;;;;21.66;69.79;101634.50;5031895;28;19982;-59
2022/08/26 09:34:10;;;;;;;;;;;;;;;21.71;70.20;101640.09;5031888;28;19916;-59
2022/08/26 09:36:42;;;;;;;;;;;;;;;21.77;69.97;101628.34;5018068;28;19912;-59
2022/08/26 09:39:26;;;;;;;;;;;;;;;21.82;69.71;101642.03;5006538;28;19920;-59
2022/08/26 09:42:06;;;;;;;;;;;;;;;21.87;69.60;101638.63;5024461;28;19932;-59
2022/08/26 09:44:32;;;;;;;;;;;;;;;21.93;69.54;101645.84;5035714;28;19917;-59
2022/08/26 09:47:02;;;;;;;;;;;;;;;21.91;69.13;101639.84;5032162;28;19913;-60
2022/08/26 09:49:35;;;;;;;;;;;;;;;21.87;69.07;101644.88;5032617;28;19913;-60
2022/08/26 09:52:21;;;;;;;;;;;;;;;21.86;69.15;101640.50;5031749;28;19916;-59
2022/08/26 09:54:59;;;;;;;;;;;;;;;21.88;68.93;101651.94;5024624;28;20440;-59
2022/08/26 09:57:26;;;;;;;;;;;;;;;21.85;68.77;101644.28;5028032;28;19913;-59
2022/08/26 09:59:52;;;;;;;;;;;;;;;21.79;68.41;101653.28;5024753;28;19963;-59
2022/08/26 10:02:32;;;;;;;;;;;;;;;21.74;68.51;101646.91;5022013;28;19917;-59
2022/08/26 10:04:59;;;;;;;;;;;;;;;21.75;68.65;101641.28;5029724;28;19913;-59
2022/08/26 10:07:37;;;;;;;;;;;;;;;21.69;68.33;101644.88;5035619;28;19919;-59
2022/08/26 10:10:04;;;;;;;;;;;;;;;21.65;68.20;101646.38;5028878;28;19960;-59
2022/08/26 10:12:32;;;;;;;;;;;;;;;21.67;68.62;101646.97;5034251;28;19912;-59
2022/08/26 10:15:00;;;;;;;;;;;;;;;21.63;68.35;101645.75;5039130;28;19924;-59
2022/08/26 10:17:52;;;;;;;;;;;;;;;21.60;68.28;101648.91;5048533;28;19912;-59
2022/08/26 10:20:21;;;;;;;;;;;;;;;21.58;68.37;101653.72;5034424;28;19917;-59
2022/08/26 10:22:51;;;;;;;;;;;;;;;21.58;68.39;101654.53;5023748;28;20292;-59
2022/08/26 10:25:20;;;;;;;;;;;;;;;21.61;68.47;101661.38;5029175;28;19960;-59
2022/08/26 10:27:50;;;;;;;;;;;;;;;21.61;68.10;101656.81;5039293;28;19950;-59
2022/08/26 10:30:17;;;;;;;;;;;;;;;21.61;68.43;101658.69;5041248;28;19956;-59
2022/08/26 10:32:49;;;;;;;;;;;;;;;21.61;68.35;101653.28;5031013;28;19971;-59
2022/08/26 10:35:16;;;;;;;;;;;;;;;21.61;68.36;101655.97;5029476;28;20087;-59
2022/08/26 10:37:47;;;;;;;;;;;;;;;21.62;68.47;101654.91;5036267;28;19913;-59
2022/08/26 10:40:14;;;;;;;;;;;;;;;21.61;68.41;101651.41;5040015;28;19919;-59
2022/08/26 10:42:42;;;;;;;;;;;;;;;21.63;68.42;101656.56;5036868;28;19917;-59
2022/08/26 10:45:11;;;;;;;;;;;;;;;21.61;68.29;101647.88;5030387;28;19913;-59
2022/08/26 10:47:41;;;;;;;;;;;;;;;21.70;68.66;101654.66;5040952;28;19924;-59
2022/08/26 10:50:07;;;;;;;;;;;;;;;21.71;68.29;101652.78;5037490;28;20055;-59
2022/08/26 10:52:38;;;;;;;;;;;;;;;21.72;68.41;101649.84;5035268;28;20011;-59
2022/08/26 10:55:06;;;;;;;;;;;;;;;21.73;68.16;101646.09;5027178;28;19913;-59
2022/08/26 10:57:50;;;;;;;;;;;;;;;21.77;68.25;101646.47;5035601;28;20291;-59
2022/08/26 11:03:23;;;;;;;;;;;;;;;21.85;68.10;101646.97;5022935;28;20579;-59
2022/08/26 11:06:07;;;;;;;;;;;;;;;21.87;67.87;101639.47;5021933;28;19913;-59
2022/08/26 11:08:32;;;;;;;;;;;;;;;21.85;67.67;101638.88;5025298;28;20370;-59
2022/08/26 11:10:58;;;;;;;;;;;;;;;21.83;67.83;101654.50;5030776;28;20028;-59
2022/08/26 11:13:42;;;;;;;;;;;;;;;21.82;67.83;101662.84;5023939;28;19921;-59
2022/08/26 11:16:07;;;;;;;;;;;;;;;21.71;67.84;101658.19;5033782;28;19909;-59
2022/08/26 11:18:37;;;;;;;;;;;;;;;21.63;67.75;101665.50;5029335;28;19991;-59
2022/08/26 11:21:22;;;;;;;;;;;;;;;21.58;68.18;101659.94;5045491;28;19995;-59
2022/08/26 11:23:47;;;;;;;;;;;;;;;21.55;68.09;101657.69;5039052;28;20388;-59
2022/08/26 11:26:13;;;;;;;;;;;;;;;21.51;67.96;101653.78;5029605;28;19952;-59
2022/08/26 11:28:49;;;;;;;;;;;;;;;21.51;68.35;101659.19;5040435;28;19909;-59
2022/08/26 11:31:23;;;;;;;;;;;;;;;21.50;68.66;101654.84;5039773;28;19917;-59
2022/08/26 11:33:58;;;;;;;;;;;;;;;21.50;68.49;101651.31;5021106;28;19916;-59
2022/08/26 11:36:32;;;;;;;;;;;;;;;21.45;68.29;101646.59;5024016;28;19913;-59
2022/08/26 11:38:57;;;;;;;;;;;;;;;21.37;68.16;101648.72;5032718;28;19912;-59
2022/08/26 11:41:27;;;;;;;;;;;;;;;21.33;68.38;101649.16;5035570;28;19909;-59
2022/08/26 11:43:53;;;;;;;;;;;;;;;21.27;68.21;101650.06;5033540;28;20466;-60
2022/08/26 11:46:26;;;;;;;;;;;;;;;21.22;68.35;101643.66;5021086;28;19913;-59
2022/08/26 11:48:59;;;;;;;;;;;;;;;21.20;68.43;101645.75;5034581;28;19912;-59
2022/08/26 11:51:24;;;;;;;;;;;;;;;21.25;68.45;101654.88;5037307;28;20368;-60
2022/08/26 11:53:50;;;;;;;;;;;;;;;21.23;68.60;101653.41;5029858;28;19956;-59
2022/08/26 11:56:23;;;;;;;;;;;;;;;21.26;68.53;101652.97;5031170;28;19924;-59
2022/08/26 11:58:50;;;;;;;;;;;;;;;21.34;68.59;101648.13;5039805;28;19912;-59
2022/08/26 12:01:34;;;;;;;;;;;;;;;21.43;68.60;101647.84;5045496;28;19968;-59
2022/08/26 12:04:01;;;;;;;;;;;;;;;21.51;68.28;101653.78;5032251;28;19917;-59
2022/08/26 12:06:32;;;;;;;;;;;;;;;21.55;68.00;101651.47;5036514;28;19920;-59
2022/08/26 12:08:58;;;;;;;;;;;;;;;21.56;67.83;101655.81;5036708;28;19967;-60
2022/08/26 12:11:31;;;;;;;;;;;;;;;21.54;67.75;101647.13;5030337;28;19921;-60
2022/08/26 12:13:56;;;;;;;;;;;;;;;21.64;67.95;101650.13;5036974;28;19935;-59
2022/08/26 12:16:24;;;;;;;;;;;;;;;21.66;67.78;101645.31;5034937;28;19909;-60
2022/08/26 12:18:49;;;;;;;;;;;;;;;21.68;67.54;101645.09;5028659;28;20420;-60
2022/08/26 12:21:20;;;;;;;;;;;;;;;21.68;67.27;101643.22;5036266;28;20361;-60
2022/08/26 12:23:48;;;;;;;;;;;;;;;21.67;67.15;101646.97;5030012;28;19940;-61
2022/08/26 12:26:21;;;;;;;;;;;;;;;21.70;67.26;101654.66;5029160;28;19935;-60
2022/08/26 12:29:07;;;;;;;;;;;;;;;21.73;67.11;101656.91;5034086;28;19909;-61
2022/08/26 12:31:40;;;;;;;;;;;;;;;21.73;66.79;101648.78;5042734;28;19920;-60
2022/08/26 12:34:09;;;;;;;;;;;;;;;21.73;67.04;101656.91;5023613;28;19924;-60
2022/08/26 12:36:37;;;;;;;;;;;;;;;21.76;66.88;101653.75;5027305;28;19979;-60
2022/08/26 12:39:09;;;;;;;;;;;;;;;21.79;66.98;101661.41;5026262;28;20365;-60
2022/08/26 12:41:38;;;;;;;;;;;;;;;21.79;67.00;101661.41;5025527;28;20001;-60
2022/08/26 12:44:03;;;;;;;;;;;;;;;21.77;66.81;101660.81;5028147;28;19924;-60
2022/08/26 12:46:28;;;;;;;;;;;;;;;21.72;66.43;101663.38;5022559;28;19912;-60
2022/08/26 12:48:59;;;;;;;;;;;;;;;21.67;66.49;101665.06;5028666;28;19913;-60
2022/08/26 12:51:26;;;;;;;;;;;;;;;21.65;66.19;101668.00;5033850;28;19939;-60